Time;durP1;ratioP1;P1;durP2;ratioP2;P2;SDS_P1;SDS_P2;PMS_P1;PMS_P2;Temp;Humidity;BMP_temperature;BMP_pressure;BME280_temperature;BME280_humidity;BME280_pressure;Samples;Min_cycle;Max_cycle;Signal;HPM_P1;HPM_P2
2021/10/04 00:01:13;;;;;;;5.80;4.80;;;;;;;11.42;41.97;100281.50;5073516;28;20034;-79
2021/10/04 00:03:39;;;;;;;6.38;4.47;;;;;;;12.25;41.98;100420.75;5073420;28;20058;-80
2021/10/04 00:06:06;;;;;;;11.00;4.32;;;;;;;12.13;42.71;100404.38;5073517;28;20091;-80
2021/10/04 00:08:31;;;;;;;6.55;4.13;;;;;;;11.11;42.65;100254.03;5073462;28;20032;-80
2021/10/04 00:10:57;;;;;;;6.03;3.85;;;;;;;11.94;42.07;100383.53;5073471;28;20070;-80
2021/10/04 00:13:22;;;;;;;5.13;4.10;;;;;;;12.19;42.51;100432.00;5073374;28;20107;-80
2021/10/04 00:15:48;;;;;;;8.52;4.75;;;;;;;12.04;42.40;100415.97;5073174;28;20086;-80
2021/10/04 00:18:13;;;;;;;6.18;4.05;;;;;;;12.12;42.55;100441.59;5073208;28;20025;-80
2021/10/04 00:20:39;;;;;;;5.28;3.80;;;;;;;11.97;42.56;100423.72;5073330;28;20024;-80
2021/10/04 00:23:06;;;;;;;6.35;4.10;;;;;;;12.11;42.71;100438.13;5073406;28;20024;-75
2021/10/04 00:25:32;;;;;;;8.75;4.57;;;;;;;12.01;41.98;100426.88;5073167;28;20497;-76
2021/10/04 00:27:57;;;;;;;7.57;4.20;;;;;;;12.05;42.10;100434.31;5073060;28;20398;-76
2021/10/04 00:30:23;;;;;;;6.13;3.90;;;;;;;12.06;42.50;100435.16;5072976;28;20161;-75
2021/10/04 00:32:51;;;;;;;7.38;3.97;;;;;;;12.03;42.62;100433.66;5072909;28;20520;-75
2021/10/04 00:35:19;;;;;;;5.07;3.90;;;;;;;11.93;42.87;100422.41;5072840;28;20072;-75
2021/10/04 00:37:45;;;;;;;4.68;4.03;;;;;;;12.02;42.84;100426.72;5072838;28;20050;-75
2021/10/04 00:40:14;;;;;;;6.13;4.22;;;;;;;12.04;42.37;100423.91;5072912;28;20016;-75
2021/10/04 00:42:40;;;;;;;4.78;4.22;;;;;;;11.67;42.48;100369.59;5072604;28;20398;-74
2021/10/04 00:45:08;;;;;;;8.13;4.95;;;;;;;12.02;43.26;100434.66;5072740;28;20108;-75
2021/10/04 00:47:33;;;;;;;5.50;4.13;;;;;;;11.99;42.91;100442.94;5072584;28;20514;-74
2021/10/04 00:49:59;;;;;;;6.10;4.22;;;;;;;11.88;42.63;100416.75;5072619;28;20017;-74
2021/10/04 00:52:24;;;;;;;5.72;3.60;;;;;;;11.96;42.79;100418.59;5072625;28;20025;-75
2021/10/04 00:54:50;;;;;;;5.05;4.25;;;;;;;11.95;43.43;100435.47;5072577;28;20024;-75
2021/10/04 00:57:16;;;;;;;6.38;3.90;;;;;;;11.83;43.41;100416.44;5072473;28;20086;-77
2021/10/04 00:59:42;;;;;;;5.25;4.15;;;;;;;10.99;43.32;100285.22;5072703;28;20028;-76
2021/10/04 01:02:08;;;;;;;7.57;4.57;;;;;;;11.89;43.60;100429.03;5072569;28;20035;-75
2021/10/04 01:04:34;;;;;;;6.72;4.45;;;;;;;11.91;43.12;100420.94;5070266;28;20028;-76
2021/10/04 01:06:59;;;;;;;5.00;3.92;;;;;;;11.03;43.81;100283.91;5071859;28;20059;-76
2021/10/04 01:09:27;;;;;;;6.15;4.45;;;;;;;11.80;43.89;100429.97;5071978;28;20052;-76
2021/10/04 01:11:55;;;;;;;6.18;4.22;;;;;;;11.73;43.69;100413.06;5072288;28;20408;-74
2021/10/04 01:14:20;;;;;;;4.78;4.30;;;;;;;11.73;43.74;100416.56;5072103;28;20068;-75
2021/10/04 01:16:46;;;;;;;7.72;4.40;;;;;;;11.80;44.21;100422.03;5071997;28;20048;-76
2021/10/04 01:19:12;;;;;;;5.50;4.43;;;;;;;11.79;43.95;100420.41;5071956;28;20032;-76
2021/10/04 01:21:38;;;;;;;8.88;4.80;;;;;;;11.75;43.92;100424.31;5071797;28;20044;-76
2021/10/04 01:24:06;;;;;;;5.60;4.65;;;;;;;11.61;44.13;100415.22;5071916;28;20032;-76
2021/10/04 01:26:32;;;;;;;7.45;4.25;;;;;;;11.65;43.79;100436.88;5071823;28;20016;-76
2021/10/04 01:28:57;;;;;;;8.15;4.53;;;;;;;11.29;44.26;100378.16;5071936;28;20477;-76
2021/10/04 01:31:23;;;;;;;6.35;4.28;;;;;;;11.55;44.08;100431.75;5071941;28;20020;-74
2021/10/04 01:33:50;;;;;;;9.50;4.35;;;;;;;11.50;44.35;100417.34;5071406;28;20021;-75
2021/10/04 01:36:16;;;;;;;6.78;4.70;;;;;;;11.60;44.56;100437.38;5071441;28;20031;-76
2021/10/04 01:38:42;;;;;;;6.97;4.55;;;;;;;11.60;43.93;100432.09;5071738;28;20032;-75
2021/10/04 01:41:07;;;;;;;8.10;4.68;;;;;;;10.88;44.31;100317.22;5071751;28;20020;-76
2021/10/04 01:43:33;;;;;;;5.75;4.80;;;;;;;11.59;44.81;100430.41;5071579;28;20032;-75
2021/10/04 01:45:58;;;;;;;7.38;5.18;;;;;;;11.59;44.50;100425.13;5071868;28;20020;-75
2021/10/04 01:48:24;;;;;;;5.43;4.93;;;;;;;11.59;44.75;100456.03;5071541;28;20033;-75
2021/10/04 01:50:49;;;;;;;7.65;4.72;;;;;;;11.50;44.41;100418.19;5070239;28;20085;-75
2021/10/04 01:53:15;;;;;;;8.70;4.93;;;;;;;11.55;44.99;100430.91;5071673;28;20055;-75
2021/10/04 01:55:40;;;;;;;8.38;5.35;;;;;;;11.04;45.05;100366.66;5070134;28;20033;-76
2021/10/04 01:58:06;;;;;;;7.30;5.35;;;;;;;11.43;44.96;100419.81;5071417;28;20109;-75
2021/10/04 02:00:32;;;;;;;11.00;5.80;;;;;;;11.42;44.85;100421.63;5071344;28;20028;-76
2021/10/04 02:02:58;;;;;;;9.55;5.22;;;;;;;10.71;45.25;100307.59;5071324;28;20061;-75
2021/10/04 02:05:24;;;;;;;6.95;4.93;;;;;;;11.07;45.15;100374.25;5071201;28;20021;-75
2021/10/04 02:07:51;;;;;;;7.13;4.97;;;;;;;11.51;45.21;100432.22;5071254;28;20037;-75
2021/10/04 02:10:21;;;;;;;10.50;5.38;;;;;;;11.46;45.53;100432.72;5071324;28;20029;-75
2021/10/04 02:12:47;;;;;;;9.60;5.63;;;;;;;10.70;45.09;100324.44;5071409;28;20024;-75
2021/10/04 02:15:13;;;;;;;12.30;6.45;;;;;;;11.46;45.28;100433.53;5071280;28;20033;-76
2021/10/04 02:17:39;;;;;;;8.63;5.53;;;;;;;11.24;45.13;100399.78;5071091;28;20024;-75
2021/10/04 02:20:08;;;;;;;6.68;5.53;;;;;;;11.37;45.09;100426.56;5071628;28;20528;-76
2021/10/04 02:22:34;;;;;;;22.60;6.22;;;;;;;11.43;45.36;100441.78;5071103;28;20417;-76
2021/10/04 02:25:00;;;;;;;9.45;5.30;;;;;;;11.40;44.97;100436.00;5071114;28;20032;-76
2021/10/04 02:27:25;;;;;;;10.18;6.03;;;;;;;11.05;44.80;100382.34;5071156;28;20047;-75
2021/10/04 02:29:51;;;;;;;7.63;5.72;;;;;;;11.39;45.75;100435.19;5071343;28;20121;-75
2021/10/04 02:32:17;;;;;;;8.30;5.63;;;;;;;11.33;44.94;100421.78;5071002;28;20058;-75
2021/10/04 02:34:42;;;;;;;9.27;5.90;;;;;;;11.34;45.40;100441.94;5069809;28;20042;-75
2021/10/04 02:37:08;;;;;;;7.72;5.22;;;;;;;11.30;45.88;100472.31;5071162;28;20029;-76
2021/10/04 02:39:33;;;;;;;8.57;5.63;;;;;;;11.14;45.84;100425.50;5071250;28;20467;-76
2021/10/04 02:41:59;;;;;;;8.02;4.80;;;;;;;11.17;46.10;100432.31;5071131;28;20040;-76
2021/10/04 02:44:24;;;;;;;8.75;5.13;;;;;;;10.89;46.25;100403.44;5070960;28;20035;-75
2021/10/04 02:46:50;;;;;;;8.57;5.95;;;;;;;11.14;46.04;100449.28;5071062;28;20047;-74
2021/10/04 02:49:15;;;;;;;7.25;5.50;;;;;;;11.10;46.07;100450.59;5071037;28;20028;-75
2021/10/04 02:51:41;;;;;;;7.03;5.30;;;;;;;10.99;46.18;100437.66;5070830;28;20036;-75
2021/10/04 02:54:06;;;;;;;7.53;5.68;;;;;;;10.74;46.12;100411.13;5070661;28;20020;-75
2021/10/04 02:56:32;;;;;;;9.65;5.97;;;;;;;11.02;46.23;100463.75;5071123;28;20029;-76
2021/10/04 02:58:57;;;;;;;10.13;5.38;;;;;;;10.85;46.66;100432.97;5071043;28;20024;-75
2021/10/04 03:01:22;;;;;;;10.55;5.75;;;;;;;10.96;46.29;100459.09;5071105;28;20028;-75
2021/10/04 03:03:48;;;;;;;8.30;5.97;;;;;;;10.21;46.58;100347.94;5070556;28;20024;-74
2021/10/04 03:06:13;;;;;;;6.93;5.10;;;;;;;10.73;46.54;100427.13;5070729;28;20025;-76
2021/10/04 03:08:39;;;;;;;7.75;5.75;;;;;;;10.39;46.60;100387.47;5070632;28;20576;-75
2021/10/04 03:11:04;;;;;;;8.80;5.85;;;;;;;10.90;46.34;100465.03;5070690;28;20024;-75
2021/10/04 03:13:30;;;;;;;8.52;6.07;;;;;;;10.72;46.96;100444.78;5070694;28;20027;-75
2021/10/04 03:15:55;;;;;;;8.43;5.53;;;;;;;10.88;47.00;100467.81;5070551;28;20031;-76
2021/10/04 03:18:21;;;;;;;9.80;5.93;;;;;;;10.87;47.04;100466.16;5070558;28;20416;-75
2021/10/04 03:20:46;;;;;;;10.75;6.20;;;;;;;10.71;46.98;100432.56;5070649;28;20523;-75
2021/10/04 03:23:11;;;;;;;7.38;5.70;;;;;;;10.89;47.16;100466.00;5070725;28;20576;-80
2021/10/04 03:25:37;;;;;;;9.07;6.45;;;;;;;10.78;47.08;100451.25;5070666;28;20021;-80
2021/10/04 03:28:04;;;;;;;8.65;5.65;;;;;;;10.84;46.92;100477.06;5071582;28;20052;-80
2021/10/04 03:30:30;;;;;;;7.90;5.70;;;;;;;10.36;47.16;100399.16;5074217;28;20032;-80
2021/10/04 03:32:55;;;;;;;9.02;5.60;;;;;;;10.75;47.37;100467.44;5074010;28;20572;-80
2021/10/04 03:35:22;;;;;;;9.60;5.97;;;;;;;10.39;46.95;100412.06;5073897;28;20089;-80
2021/10/04 03:37:48;;;;;;;10.98;7.25;;;;;;;10.70;46.99;100499.59;5073881;28;20417;-80
2021/10/04 03:40:13;;;;;;;10.00;5.70;;;;;;;10.59;47.25;100449.66;5073909;28;20028;-80
2021/10/04 03:42:39;;;;;;;8.30;5.57;;;;;;;10.69;47.12;100468.88;5073943;28;20518;-80
2021/10/04 03:45:06;;;;;;;10.07;6.45;;;;;;;10.66;47.52;100469.19;5073871;28;20040;-80
2021/10/04 03:47:31;;;;;;;11.23;5.72;;;;;;;10.46;47.28;100436.88;5073892;28;20437;-80
2021/10/04 03:49:57;;;;;;;8.85;5.70;;;;;;;10.51;47.30;100446.97;5073725;28;20028;-80
2021/10/04 03:52:22;;;;;;;8.30;6.00;;;;;;;10.51;47.49;100460.19;5073900;28;20031;-80
2021/10/04 03:54:48;;;;;;;9.63;6.28;;;;;;;9.72;47.83;100323.84;5073766;28;20032;-80
2021/10/04 03:57:14;;;;;;;7.13;5.20;;;;;;;10.25;47.29;100420.53;5073506;28;20519;-80
2021/10/04 03:59:39;;;;;;;8.73;5.80;;;;;;;10.19;47.33;100410.56;5073560;28;20026;-80
2021/10/04 04:02:05;;;;;;;7.28;5.80;;;;;;;10.48;47.53;100455.22;5073405;28;20107;-80
2021/10/04 04:04:31;;;;;;;7.38;5.63;;;;;;;10.31;47.31;100425.22;5073257;28;20024;-80
2021/10/04 04:06:56;;;;;;;9.57;6.20;;;;;;;9.89;47.48;100377.53;5073505;28;20027;-80
2021/10/04 04:09:22;;;;;;;9.30;6.00;;;;;;;10.44;47.64;100459.97;5073543;28;20029;-80
2021/10/04 04:11:47;;;;;;;9.68;6.22;;;;;;;10.34;47.43;100451.28;5073533;28;20025;-80
2021/10/04 04:14:13;;;;;;;9.85;5.93;;;;;;;10.53;47.81;100486.44;5073459;28;20037;-80
2021/10/04 04:16:38;;;;;;;11.18;6.13;;;;;;;10.52;47.77;100492.69;5073289;28;20086;-80
2021/10/04 04:19:03;;;;;;;12.82;6.30;;;;;;;10.31;48.17;100464.81;5073334;28;20104;-79
2021/10/04 04:21:29;;;;;;;8.68;6.25;;;;;;;10.28;48.30;100461.63;5073175;28;20413;-80
2021/10/04 04:23:55;;;;;;;11.23;6.43;;;;;;;10.45;48.14;100498.59;5073180;28;20028;-75
2021/10/04 04:26:20;;;;;;;10.38;6.00;;;;;;;9.78;48.26;100383.06;5073084;28;20021;-75
2021/10/04 04:28:45;;;;;;;10.27;6.85;;;;;;;10.37;48.30;100466.00;5073042;28;20032;-75
2021/10/04 04:31:11;;;;;;;9.65;6.45;;;;;;;10.19;47.93;100434.31;5072865;28;20481;-75
2021/10/04 04:33:36;;;;;;;11.07;6.45;;;;;;;10.60;47.86;100493.59;5073066;28;20034;-76
2021/10/04 04:36:02;;;;;;;11.68;6.00;;;;;;;10.51;48.02;100473.38;5073043;28;20032;-74
2021/10/04 04:38:28;;;;;;;10.40;6.13;;;;;;;10.64;48.01;100488.81;5072717;28;20459;-75
2021/10/04 04:40:53;;;;;;;17.48;6.32;;;;;;;10.64;48.19;100494.09;5072925;28;20449;-76
2021/10/04 04:43:18;;;;;;;13.43;7.10;;;;;;;10.35;48.28;100455.59;5072566;28;20021;-74
2021/10/04 04:45:44;;;;;;;12.27;6.55;;;;;;;10.65;48.39;100496.59;5072432;28;20021;-75
2021/10/04 04:48:09;;;;;;;7.93;5.93;;;;;;;10.65;48.26;100493.13;5072480;28;20386;-75
2021/10/04 04:50:35;;;;;;;9.65;6.78;;;;;;;10.68;48.40;100498.09;5072461;28;20021;-76
2021/10/04 04:53:00;;;;;;;13.63;7.15;;;;;;;10.70;48.43;100493.47;5072674;28;20032;-75
2021/10/04 04:55:26;;;;;;;9.82;6.68;;;;;;;10.72;48.03;100483.59;5072528;28;20031;-75
2021/10/04 04:57:51;;;;;;;12.55;6.57;;;;;;;10.39;48.38;100435.81;5072239;28;20527;-76
2021/10/04 05:00:18;;;;;;;9.18;6.03;;;;;;;9.76;47.83;100340.19;5070757;28;20024;-75
2021/10/04 05:02:45;;;;;;;10.20;6.15;;;;;;;10.67;48.38;100489.34;5072278;28;20035;-75
2021/10/04 05:05:13;;;;;;;17.30;6.90;;;;;;;10.47;48.66;100449.09;5072311;28;20028;-76
2021/10/04 05:07:39;;;;;;;24.92;7.10;;;;;;;10.69;48.62;100484.72;5072044;28;20024;-75
2021/10/04 05:10:06;;;;;;;12.57;6.88;;;;;;;10.11;48.56;100376.22;5072128;28;20024;-76
2021/10/04 05:12:32;;;;;;;9.90;6.57;;;;;;;10.21;48.16;100386.69;5072234;28;20448;-75
2021/10/04 05:14:57;;;;;;;12.90;6.93;;;;;;;10.61;48.17;100447.69;5071902;28;20025;-75
2021/10/04 05:17:23;;;;;;;13.02;6.85;;;;;;;10.68;48.24;100440.81;5071951;28;20048;-74
2021/10/04 05:19:48;;;;;;;11.00;6.85;;;;;;;11.07;48.40;100493.19;5071795;28;20412;-76
2021/10/04 05:22:14;;;;;;;12.65;6.75;;;;;;;11.16;47.85;100491.44;5071703;28;20027;-75
2021/10/04 05:24:39;;;;;;;14.00;7.55;;;;;;;11.23;48.01;100501.22;5071858;28;20082;-75
2021/10/04 05:27:05;;;;;;;11.55;7.15;;;;;;;11.28;47.61;100496.28;5071913;28;20013;-75
2021/10/04 05:29:30;;;;;;;13.38;6.82;;;;;;;11.35;48.26;100499.13;5071716;28;20103;-76
2021/10/04 05:31:56;;;;;;;12.50;7.20;;;;;;;11.11;47.89;100454.88;5071896;28;20027;-76
2021/10/04 05:34:21;;;;;;;10.50;6.50;;;;;;;11.49;47.61;100502.97;5071557;28;20082;-75
2021/10/04 05:36:47;;;;;;;13.20;7.00;;;;;;;10.88;47.90;100404.41;5071333;28;20475;-77
2021/10/04 05:39:12;;;;;;;12.88;7.22;;;;;;;11.63;48.31;100508.47;5071485;28;20024;-77
2021/10/04 05:41:37;;;;;;;15.45;8.25;;;;;;;11.69;48.09;100507.81;5071616;28;20073;-77
2021/10/04 05:44:04;;;;;;;13.10;8.00;;;;;;;11.50;47.46;100465.78;5071324;28;20025;-76
2021/10/04 05:46:29;;;;;;;15.70;7.32;;;;;;;11.85;48.18;100515.00;5070108;28;20024;-77
2021/10/04 05:48:54;;;;;;;12.90;6.82;;;;;;;11.86;48.24;100516.66;5071634;28;20093;-76
2021/10/04 05:51:20;;;;;;;14.15;6.65;;;;;;;11.80;48.13;100495.31;5071083;28;20029;-76
2021/10/04 05:53:46;;;;;;;15.60;6.15;;;;;;;11.81;47.93;100478.44;5071386;28;20024;-76
2021/10/04 05:56:12;;;;;;;15.70;6.70;;;;;;;12.04;48.29;100504.13;5070665;28;20016;-76
2021/10/04 05:58:38;;;;;;;17.70;8.88;;;;;;;12.12;48.11;100502.50;5079875;28;20012;-77
2021/10/04 06:01:03;;;;;;;11.93;7.25;;;;;;;12.20;47.66;100502.50;5091473;28;20073;-76
2021/10/04 06:03:28;;;;;;;11.95;7.93;;;;;;;12.17;47.88;100492.22;5078790;28;20031;-76
2021/10/04 06:05:54;;;;;;;13.10;7.28;;;;;;;12.15;47.87;100487.09;5090024;28;20020;-76
2021/10/04 06:08:19;;;;;;;13.68;7.15;;;;;;;11.98;48.21;100464.25;5085554;28;20020;-76
2021/10/04 06:10:45;;;;;;;12.95;6.72;;;;;;;12.38;48.43;100508.44;5070966;28;20017;-76
2021/10/04 06:13:10;;;;;;;15.35;6.90;;;;;;;12.58;48.29;100514.22;5071010;28;20036;-76
2021/10/04 06:15:35;;;;;;;16.80;6.85;;;;;;;12.60;48.03;100507.75;5070825;28;20039;-76
2021/10/04 06:18:01;;;;;;;12.45;6.70;;;;;;;12.65;48.42;100502.81;5071215;28;20471;-76
2021/10/04 06:20:27;;;;;;;15.45;8.85;;;;;;;12.38;48.20;100439.59;5076024;28;20405;-76
2021/10/04 06:22:52;;;;;;;13.80;7.90;;;;;;;12.99;48.90;100557.41;5091619;28;20095;-76
2021/10/04 06:25:18;;;;;;;14.27;7.00;;;;;;;12.98;48.96;100506.22;5091351;28;20073;-76
2021/10/04 06:27:46;;;;;;;12.90;7.72;;;;;;;13.15;49.06;100520.25;5090994;28;20031;-76
2021/10/04 06:30:12;;;;;;;15.07;7.00;;;;;;;13.25;48.98;100510.31;5089847;28;20020;-77
2021/10/04 06:32:38;;;;;;;10.70;6.70;;;;;;;13.43;48.85;100527.84;5091145;28;20032;-76
2021/10/04 06:35:03;;;;;;;9.93;6.80;;;;;;;13.53;48.93;100516.03;5091182;28;20020;-76
2021/10/04 06:37:29;;;;;;;14.77;8.88;;;;;;;12.99;49.20;100420.41;5091112;28;20020;-77
2021/10/04 06:39:54;;;;;;;10.75;6.88;;;;;;;12.56;49.30;100334.25;5091237;28;20021;-76
2021/10/04 06:42:20;;;;;;;14.45;7.38;;;;;;;13.86;49.08;100516.66;5090956;28;20488;-76
2021/10/04 06:44:45;;;;;;;21.35;10.80;;;;;;;14.00;49.31;100520.38;5090975;28;20020;-76
2021/10/04 06:47:11;;;;;;;23.77;11.98;;;;;;;14.15;49.72;100525.78;5091027;28;20039;-77
2021/10/04 06:49:36;;;;;;;18.40;11.75;;;;;;;14.01;49.65;100479.56;5091066;28;20035;-76
2021/10/04 06:52:04;;;;;;;19.92;11.70;;;;;;;14.47;49.16;100525.56;5090783;28;20027;-76
2021/10/04 06:54:30;;;;;;;14.63;7.45;;;;;;;14.11;50.21;100442.97;5090827;28;20024;-76
2021/10/04 06:56:55;;;;;;;9.75;7.10;;;;;;;14.78;50.64;100527.28;5086173;28;20023;-77
2021/10/04 06:59:21;;;;;;;14.20;6.63;;;;;;;14.88;50.28;100518.06;5070752;28;20024;-76
2021/10/04 07:01:46;;;;;;;15.50;7.60;;;;;;;14.90;50.46;100488.63;5070540;28;20078;-76
2021/10/04 07:04:11;;;;;;;10.38;7.00;;;;;;;15.09;50.21;100501.38;5081346;28;20400;-76
2021/10/04 07:06:37;;;;;;;10.73;7.00;;;;;;;15.39;50.18;100519.97;5082477;28;20044;-76
2021/10/04 07:09:02;;;;;;;9.10;6.95;;;;;;;14.87;50.02;100438.47;5094304;28;20082;-77
2021/10/04 07:11:28;;;;;;;11.43;6.63;;;;;;;15.61;50.14;100534.22;5091765;28;20035;-76
2021/10/04 07:13:54;;;;;;;9.02;6.78;;;;;;;14.93;50.00;100408.50;5094067;28;20043;-75
2021/10/04 07:16:20;;;;;;;9.85;6.78;;;;;;;15.75;49.95;100531.53;5094029;28;20454;-73
2021/10/04 07:18:45;;;;;;;11.18;9.07;;;;;;;15.87;50.00;100538.03;5093928;28;20028;-76
2021/10/04 07:21:11;;;;;;;14.00;11.05;;;;;;;15.93;49.95;100563.06;5093965;28;20029;-76
2021/10/04 07:23:38;;;;;;;12.48;8.73;;;;;;;15.82;50.44;100520.97;5094085;28;20463;-80
2021/10/04 07:26:04;;;;;;;14.48;10.80;;;;;;;15.63;50.18;100494.94;5094050;28;20089;-81
2021/10/04 07:28:30;;;;;;;17.23;12.32;;;;;;;15.76;50.68;100500.41;5094131;28;20048;-80
2021/10/04 07:30:56;;;;;;;13.85;11.65;;;;;;;16.06;50.52;100533.09;5094112;28;20050;-81
2021/10/04 07:33:22;;;;;;;14.88;11.20;;;;;;;15.93;50.99;100511.66;5093852;28;20028;-81
2021/10/04 07:35:50;;;;;;;16.92;14.25;;;;;;;16.07;50.87;100535.56;5093786;28;20032;-81
2021/10/04 07:38:16;;;;;;;19.80;15.07;;;;;;;16.10;50.83;100561.00;5093824;28;20481;-81
2021/10/04 07:40:41;;;;;;;13.63;10.80;;;;;;;15.65;50.44;100461.78;5092462;28;20054;-80
2021/10/04 07:43:07;;;;;;;18.70;12.98;;;;;;;16.06;50.89;100525.09;5093668;28;20133;-81
2021/10/04 07:45:33;;;;;;;13.43;10.23;;;;;;;15.37;51.19;100404.91;5093776;28;20020;-80
2021/10/04 07:47:59;;;;;;;12.85;11.27;;;;;;;15.74;50.98;100458.00;5093686;28;20095;-81
2021/10/04 07:50:24;;;;;;;16.48;14.20;;;;;;;16.35;51.35;100553.47;5093663;28;20104;-81
2021/10/04 07:52:50;;;;;;;21.50;15.50;;;;;;;16.27;51.21;100505.63;5093493;28;20096;-81
2021/10/04 07:55:16;;;;;;;22.63;17.10;;;;;;;15.96;51.08;100458.00;5093222;28;20077;-80
2021/10/04 07:57:44;;;;;;;30.90;15.35;;;;;;;16.49;51.33;100531.28;5093042;28;20111;-81
2021/10/04 08:00:10;;;;;;;18.35;12.63;;;;;;;16.56;51.20;100526.00;5085611;28;20024;-81
2021/10/04 08:02:36;;;;;;;14.30;12.73;;;;;;;16.62;51.17;100523.38;5072648;28;20025;-81
2021/10/04 08:05:03;;;;;;;11.88;10.63;;;;;;;16.67;51.25;100528.97;5072726;28;20145;-80
2021/10/04 08:07:29;;;;;;;18.92;13.70;;;;;;;16.68;51.19;100524.47;5091835;28;20021;-81
2021/10/04 08:09:54;;;;;;;14.82;11.75;;;;;;;16.75;50.94;100525.34;5092845;28;20020;-81
2021/10/04 08:12:23;;;;;;;19.75;11.57;;;;;;;16.61;50.93;100502.25;5092126;28;20051;-81
2021/10/04 08:14:49;;;;;;;15.07;11.70;;;;;;;16.87;50.41;100529.13;5091660;28;20500;-80
2021/10/04 08:17:14;;;;;;;25.00;10.38;;;;;;;16.92;50.16;100524.03;5091550;28;20028;-80
2021/10/04 08:19:40;;;;;;;17.73;9.82;;;;;;;16.75;49.75;100488.84;5091485;28;20024;-81
2021/10/04 08:22:05;;;;;;;12.27;10.15;;;;;;;16.68;49.65;100455.97;5091558;28;20480;-80
2021/10/04 08:24:30;;;;;;;12.68;9.48;;;;;;;17.21;49.78;100524.84;5091012;28;20016;-81
2021/10/04 08:26:56;;;;;;;13.20;9.75;;;;;;;17.04;49.39;100474.44;5090926;28;20016;-80
2021/10/04 08:29:21;;;;;;;16.75;10.73;;;;;;;16.71;49.54;100391.56;5091075;28;20035;-80
2021/10/04 08:31:47;;;;;;;11.63;9.38;;;;;;;17.35;49.40;100473.16;5090674;28;20542;-80
2021/10/04 08:34:12;;;;;;;12.73;10.70;;;;;;;17.73;49.12;100529.63;5091194;28;20034;-80
2021/10/04 08:36:38;;;;;;;14.02;9.90;;;;;;;17.29;48.95;100429.41;5090998;28;20408;-79
2021/10/04 08:39:05;;;;;;;13.80;9.77;;;;;;;17.82;48.93;100491.00;5090964;28;20583;-80
2021/10/04 08:41:33;;;;;;;15.20;9.55;;;;;;;17.33;48.81;100428.00;5091065;28;20075;-80
2021/10/04 08:44:04;;;;;;;11.05;8.40;;;;;;;17.34;48.88;100418.13;5081551;28;20024;-80
2021/10/04 08:46:30;;;;;;;12.47;8.77;;;;;;;17.97;48.42;100496.22;5085995;28;20023;-80
2021/10/04 08:48:56;;;;;;;11.07;9.98;;;;;;;17.88;48.60;100457.34;5092031;28;20266;-80
2021/10/04 08:51:22;;;;;;;13.88;10.07;;;;;;;18.09;48.21;100465.19;5091506;28;20016;-80
2021/10/04 08:53:48;;;;;;;11.80;8.55;;;;;;;17.79;47.45;100416.63;5090801;28;20016;-80
2021/10/04 08:56:14;;;;;;;11.35;8.40;;;;;;;18.37;47.35;100467.66;5092103;28;20028;-80
2021/10/04 08:58:40;;;;;;;13.73;9.85;;;;;;;18.53;47.17;100483.28;5092136;28;20031;-80
2021/10/04 09:01:09;;;;;;;15.15;12.85;;;;;;;18.54;47.02;100460.84;5092185;28;20031;-80
2021/10/04 09:03:45;;;;;;;12.55;8.85;;;;;;;18.77;46.95;100471.16;5088607;28;20416;-78
2021/10/04 09:06:27;;;;;;;9.35;8.38;;;;;;;18.86;46.60;100471.78;5071533;28;20021;-80
2021/10/04 09:08:54;;;;;;;;;;;;;;;18.84;46.63;100471.16;5081813;28;20063;-80
2021/10/04 09:11:31;;;;;;;12.48;7.32;;;;;;;18.83;46.15;100437.41;5090610;28;20291;-80
2021/10/04 09:14:02;;;;;;;16.85;8.65;;;;;;;19.11;45.70;100450.50;5082274;28;20115;-80
2021/10/04 09:17:01;;;;;;;9.93;7.60;;;;;;;19.42;45.25;100463.16;5091569;28;20024;-79
2021/10/04 09:19:41;;;;;;;9.52;7.78;;;;;;;19.53;44.94;100463.34;5071454;28;20028;-80
2021/10/04 09:22:17;;;;;;;10.13;7.97;;;;;;;19.75;44.62;100460.34;5076236;28;20051;-78
2021/10/04 09:25:02;;;;;;;12.80;8.18;;;;;;;19.94;44.40;100462.06;5081130;28;20069;-80
2021/10/04 09:27:38;;;;;;;12.93;10.50;;;;;;;19.47;43.88;100357.03;5082595;28;20136;-80
2021/10/04 09:30:13;;;;;;;11.18;8.52;;;;;;;19.73;43.77;100379.34;5082380;28;20039;-81
2021/10/04 09:32:39;;;;;;;10.23;8.73;;;;;;;20.34;43.52;100445.69;5071056;28;20020;-80
2021/10/04 09:35:10;;;;;;;11.95;8.10;;;;;;;20.33;43.12;100444.06;5084247;28;20031;-80
2021/10/04 09:37:36;;;;;;;12.60;10.13;;;;;;;20.34;42.89;100430.41;5090924;28;20020;-80
2021/10/04 09:40:03;;;;;;;12.93;8.30;;;;;;;20.56;42.74;100444.28;5077196;28;20055;-80
2021/10/04 09:42:36;;;;;;;12.85;8.43;;;;;;;20.78;42.44;100450.84;5090353;28;20055;-80
2021/10/04 09:45:03;;;;;;;14.15;8.40;;;;;;;21.03;41.86;100433.88;5070457;28;20032;-80
2021/10/04 09:47:39;;;;;;;12.50;9.15;;;;;;;20.68;41.55;100351.25;5077926;28;20039;-80
2021/10/04 09:50:04;;;;;;;12.05;9.48;;;;;;;21.36;41.21;100438.88;5091050;28;20027;-80
2021/10/04 09:52:36;;;;;;;12.13;10.05;;;;;;;21.47;40.46;100424.69;5089759;28;20032;-80
2021/10/04 09:55:12;;;;;;;13.65;9.30;;;;;;;21.40;40.71;100408.66;5073502;28;20103;-80
2021/10/04 09:57:38;;;;;;;13.15;9.48;;;;;;;21.73;40.13;100420.81;5071114;28;20082;-80
2021/10/04 10:00:04;;;;;;;10.75;8.73;;;;;;;21.66;39.99;100382.47;5071083;28;20032;-80
2021/10/04 10:02:30;;;;;;;13.63;10.90;;;;;;;22.05;39.57;100422.19;5070566;28;20029;-80
2021/10/04 10:04:56;;;;;;;10.48;8.75;;;;;;;22.12;39.15;100414.84;5070840;28;20024;-80
2021/10/04 10:07:21;;;;;;;10.88;9.73;;;;;;;22.29;39.11;100414.97;5065656;28;20025;-80
2021/10/04 10:09:46;;;;;;;25.52;19.52;;;;;;;22.47;38.44;100414.88;5070814;28;20021;-80
2021/10/04 10:12:12;;;;;;;14.80;9.45;;;;;;;22.51;38.28;100409.84;5070972;28;20162;-80
2021/10/04 10:14:47;;;;;;;14.07;10.77;;;;;;;22.78;38.02;100407.47;5070999;28;20028;-79
2021/10/04 10:17:23;;;;;;;8.48;7.10;;;;;;;22.80;36.40;100365.81;5070846;28;20028;-79
2021/10/04 10:19:51;;;;;;;10.27;7.40;;;;;;;23.03;36.95;100396.44;5070863;28;20081;-80
2021/10/04 10:22:18;;;;;;;11.30;7.72;;;;;;;23.10;36.70;100389.06;5070878;28;20574;-79
2021/10/04 10:24:45;;;;;;;9.57;6.70;;;;;;;23.19;36.60;100394.88;5070547;28;20025;-76
2021/10/04 10:27:11;;;;;;;9.30;7.57;;;;;;;23.36;36.31;100399.28;5066002;28;20029;-74
2021/10/04 10:29:38;;;;;;;6.90;6.20;;;;;;;23.11;36.24;100367.28;5060355;28;20086;-76
2021/10/04 10:32:06;;;;;;;6.82;5.72;;;;;;;23.41;35.87;100385.88;5061871;28;20036;-75
2021/10/04 10:34:39;;;;;;;7.45;6.28;;;;;;;23.55;35.59;100383.72;5049234;28;20044;-75
2021/10/04 10:37:07;;;;;;;8.63;6.95;;;;;;;23.74;35.60;100384.31;5056848;28;20387;-76
2021/10/04 10:39:41;;;;;;;8.25;6.82;;;;;;;23.91;35.01;100378.97;5067505;28;20039;-76
2021/10/04 10:42:15;;;;;;;8.82;7.68;;;;;;;24.11;34.88;100362.28;5074386;28;20028;-74
2021/10/04 10:44:56;;;;;;;7.65;6.50;;;;;;;24.08;34.78;100363.59;5054600;28;20036;-75
2021/10/04 10:47:34;;;;;;;9.60;8.60;;;;;;;24.11;34.38;100360.41;5054664;28;20033;-73
2021/10/04 10:50:13;;;;;;;7.65;6.82;;;;;;;24.04;34.72;100357.88;5054539;28;20032;-76
2021/10/04 10:52:41;;;;;;;11.20;9.52;;;;;;;23.91;34.54;100323.16;5054614;28;20476;-75
2021/10/04 10:55:31;;;;;;;9.43;6.93;;;;;;;24.27;33.96;100356.91;5061574;28;20028;-74
2021/10/04 10:58:03;;;;;;;7.75;6.00;;;;;;;24.37;33.07;100345.41;5074318;28;20488;-77
2021/10/04 11:00:37;;;;;;;12.20;7.68;;;;;;;24.42;33.45;100348.19;5074494;28;20075;-75
2021/10/04 11:03:05;;;;;;;10.13;7.20;;;;;;;24.50;33.48;100342.34;5074547;28;20036;-76
2021/10/04 11:05:41;;;;;;;7.07;5.82;;;;;;;24.38;32.43;100345.16;5074491;28;20032;-76
2021/10/04 11:08:18;;;;;;;7.80;6.22;;;;;;;24.26;33.11;100336.34;5074221;28;20045;-76
2021/10/04 11:10:49;;;;;;;10.68;5.80;;;;;;;24.36;32.88;100331.09;5074140;28;20013;-76
2021/10/04 11:13:23;;;;;;;16.50;6.13;;;;;;;24.50;32.19;100336.13;5074206;28;20039;-76
2021/10/04 11:15:49;;;;;;;7.43;4.78;;;;;;;24.37;32.15;100308.44;5071528;28;20055;-76
2021/10/04 11:18:15;;;;;;;8.18;5.07;;;;;;;24.44;31.72;100313.66;5062522;28;20052;-75